Nimbus Weather Services

Informe meteorológico para Carrasco, Uruguay. El informe se hizo hace un momento, a las 07:00 UTC. El viento soplaba a una velocidad de 3.6 m/s (8.1 millas por hora) del sur (180°). La temperatura era 12 °C (54 °F), con un punto de rocío de 6 °C (43 °F). La presión atmosférica era 1010 hPa (29.83 inHg). Había una humedad relativa del 66.7%. Cielo: sin nubes por debajo de 1500 metros (5000 pies) y sin presencia de cumulusnimbos. En aquel momento la visibilidad global era mayor de 10 kilómetros (6.2 millas).

La clave METAR es: SUMU 270700Z 18007KT CAVOK 12/06 Q1010 NOSIG

Consulta realizada el Martes 27 de Octubre de 2020 4:03. Tiempo usado para generar esta pagina:16,149 ms.